Buffalo Narrows, Buffalo Narrows Airport (CYVT)

NameBuffalo Narrows Airport
CityBuffalo Narrows
CountryCanada
ICAOCYVT
IATAYVT
Altitude434 m
CoordinatesGoogle Map
Live Air TrafficLiveATC.net
METARCYVT 061500Z AUTO 30005KT 9SM OVC006 M12/M13 A2993 RMK SLP175
2019-12-06 15:00:00 Wind: West-Northwest (300°) 2.57 m/s - Visibility: 14484.06 m - Temperature: -12 °C - Dew point: -13 °C - Humidity: 92.4% - Pressure: 1013.55 hPa
Statistics

The table below shows the detailed information of all flights to/from Buffalo Narrows, Buffalo Narrows Airport (CYVT).